Terminal Aerodrome Forecast
Issued by NWS

Home | Current Version | Previous Version | Text Only | Print | Product List | Glossary Off
Versions: 1 2 3 4 5 6 7 8 9 10 11 12 13 14

000
FTUS43 KIWX 252300
TAFSBN
TAF
KSBN 252340Z 2600/2624 02007KT P6SM OVC050
     FM260100 05007KT 3SM -SN BKN035
     FM260300 06007KT 2SM -SN BKN030
      TEMPO 2604/2608 1SM -SN OVC015
     FM261000 05007KT 3SM -SN OVC020
     FM261400 02010KT P6SM BKN035=

USA.gov is the U.S. government's official web portal to all federal, state and local government web resources and services.